sensor_id;sensor_type;location;lat;lon;timestamp;temperature;humidity
12588;DHT22;6359;51.450;7.346;2023-02-01T00:00:58;5.30;99.90
12588;DHT22;6359;51.450;7.346;2023-02-01T00:03:25;5.40;99.90
12588;DHT22;6359;51.450;7.346;2023-02-01T00:05:56;5.40;99.90
12588;DHT22;6359;51.450;7.346;2023-02-01T00:08:23;5.40;99.90
12588;DHT22;6359;51.450;7.346;2023-02-01T00:10:58;5.40;99.90
12588;DHT22;6359;51.450;7.346;2023-02-01T00:13:28;5.50;99.90
12588;DHT22;6359;51.450;7.346;2023-02-01T00:15:54;5.40;99.90
12588;DHT22;6359;51.450;7.346;2023-02-01T00:18:22;5.40;99.90
12588;DHT22;6359;51.450;7.346;2023-02-01T00:20:48;5.50;99.90
12588;DHT22;6359;51.450;7.346;2023-02-01T00:23:18;5.50;99.90
12588;DHT22;6359;51.450;7.346;2023-02-01T00:25:45;5.70;99.90
12588;DHT22;6359;51.450;7.346;2023-02-01T00:28:12;5.40;99.90
12588;DHT22;6359;51.450;7.346;2023-02-01T00:30:41;5.50;99.90
12588;DHT22;6359;51.450;7.346;2023-02-01T00:33:08;5.50;99.90
12588;DHT22;6359;51.450;7.346;2023-02-01T00:35:35;5.50;99.90
12588;DHT22;6359;51.450;7.346;2023-02-01T00:38:02;5.40;99.90
12588;DHT22;6359;51.450;7.346;2023-02-01T00:40:29;5.40;99.90
12588;DHT22;6359;51.450;7.346;2023-02-01T00:42:57;5.50;99.90
12588;DHT22;6359;51.450;7.346;2023-02-01T00:45:24;5.50;99.90
12588;DHT22;6359;51.450;7.346;2023-02-01T00:47:52;5.40;99.90
12588;DHT22;6359;51.450;7.346;2023-02-01T00:50:19;5.50;99.90
12588;DHT22;6359;51.450;7.346;2023-02-01T00:52:46;5.40;99.90
12588;DHT22;6359;51.450;7.346;2023-02-01T00:55:13;5.30;99.90
12588;DHT22;6359;51.450;7.346;2023-02-01T00:57:40;5.40;99.90
12588;DHT22;6359;51.450;7.346;2023-02-01T01:00:08;5.40;99.90
12588;DHT22;6359;51.450;7.346;2023-02-01T01:02:36;5.40;99.90
12588;DHT22;6359;51.450;7.346;2023-02-01T01:05:04;5.40;99.90
12588;DHT22;6359;51.450;7.346;2023-02-01T01:07:31;5.40;99.90
12588;DHT22;6359;51.450;7.346;2023-02-01T01:09:58;5.40;99.90
12588;DHT22;6359;51.450;7.346;2023-02-01T01:12:25;5.40;99.90
12588;DHT22;6359;51.450;7.346;2023-02-01T01:14:52;5.40;99.90
12588;DHT22;6359;51.450;7.346;2023-02-01T01:17:19;5.40;99.90
12588;DHT22;6359;51.450;7.346;2023-02-01T01:19:46;5.40;99.90
12588;DHT22;6359;51.450;7.346;2023-02-01T01:22:14;5.40;99.90
12588;DHT22;6359;51.450;7.346;2023-02-01T01:24:41;5.40;99.90
12588;DHT22;6359;51.450;7.346;2023-02-01T01:27:08;5.40;99.90
12588;DHT22;6359;51.450;7.346;2023-02-01T01:29:36;5.40;99.90
12588;DHT22;6359;51.450;7.346;2023-02-01T01:32:03;5.40;99.90
12588;DHT22;6359;51.450;7.346;2023-02-01T01:34:30;5.40;99.90
12588;DHT22;6359;51.450;7.346;2023-02-01T01:36:57;5.40;99.90
12588;DHT22;6359;51.450;7.346;2023-02-01T01:39:25;5.40;99.90
12588;DHT22;6359;51.450;7.346;2023-02-01T01:41:53;5.40;99.90
12588;DHT22;6359;51.450;7.346;2023-02-01T01:44:58;5.40;99.90
12588;DHT22;6359;51.450;7.346;2023-02-01T01:47:27;5.40;99.90
12588;DHT22;6359;51.450;7.346;2023-02-01T01:49:57;5.40;99.90
12588;DHT22;6359;51.450;7.346;2023-02-01T01:52:24;5.40;99.90
12588;DHT22;6359;51.450;7.346;2023-02-01T01:54:53;5.40;99.90
12588;DHT22;6359;51.450;7.346;2023-02-01T01:57:23;5.40;99.90
12588;DHT22;6359;51.450;7.346;2023-02-01T01:59:59;5.50;99.90
12588;DHT22;6359;51.450;7.346;2023-02-01T02:02:27;5.40;99.90
12588;DHT22;6359;51.450;7.346;2023-02-01T02:04:54;5.30;99.90
12588;DHT22;6359;51.450;7.346;2023-02-01T02:07:24;5.30;99.90
12588;DHT22;6359;51.450;7.346;2023-02-01T02:09:55;5.30;99.90
12588;DHT22;6359;51.450;7.346;2023-02-01T02:12:22;5.30;99.90
12588;DHT22;6359;51.450;7.346;2023-02-01T02:14:49;5.30;99.90
12588;DHT22;6359;51.450;7.346;2023-02-01T02:17:30;5.30;99.90
12588;DHT22;6359;51.450;7.346;2023-02-01T02:20:25;5.30;99.90
12588;DHT22;6359;51.450;7.346;2023-02-01T02:23:18;5.30;99.90
12588;DHT22;6359;51.450;7.346;2023-02-01T02:26:22;5.20;99.90
12588;DHT22;6359;51.450;7.346;2023-02-01T02:32:21;5.20;99.90
12588;DHT22;6359;51.450;7.346;2023-02-01T02:34:53;5.20;99.90
12588;DHT22;6359;51.450;7.346;2023-02-01T02:37:28;5.20;99.90
12588;DHT22;6359;51.450;7.346;2023-02-01T02:40:06;5.20;99.90
12588;DHT22;6359;51.450;7.346;2023-02-01T02:42:41;5.20;99.90
12588;DHT22;6359;51.450;7.346;2023-02-01T02:45:29;5.30;99.90
12588;DHT22;6359;51.450;7.346;2023-02-01T02:48:23;5.30;99.90
12588;DHT22;6359;51.450;7.346;2023-02-01T02:50:58;5.30;99.90
12588;DHT22;6359;51.450;7.346;2023-02-01T02:53:48;5.30;99.90
12588;DHT22;6359;51.450;7.346;2023-02-01T02:56:35;5.30;99.90
12588;DHT22;6359;51.450;7.346;2023-02-01T02:59:23;5.30;99.90
12588;DHT22;6359;51.450;7.346;2023-02-01T03:02:09;5.20;99.90
12588;DHT22;6359;51.450;7.346;2023-02-01T03:04:54;5.20;99.90
12588;DHT22;6359;51.450;7.346;2023-02-01T03:07:56;5.10;99.90
12588;DHT22;6359;51.450;7.346;2023-02-01T03:10:31;5.20;99.90
12588;DHT22;6359;51.450;7.346;2023-02-01T03:13:02;5.10;99.90
12588;DHT22;6359;51.450;7.346;2023-02-01T03:15:34;5.10;99.90
12588;DHT22;6359;51.450;7.346;2023-02-01T03:18:06;5.10;99.90
12588;DHT22;6359;51.450;7.346;2023-02-01T03:20:40;5.00;99.90
12588;DHT22;6359;51.450;7.346;2023-02-01T03:23:11;4.90;99.90
12588;DHT22;6359;51.450;7.346;2023-02-01T03:25:40;4.90;99.90
12588;DHT22;6359;51.450;7.346;2023-02-01T03:28:09;4.90;99.90
12588;DHT22;6359;51.450;7.346;2023-02-01T03:30:38;4.80;99.90
12588;DHT22;6359;51.450;7.346;2023-02-01T03:33:10;4.90;99.90
12588;DHT22;6359;51.450;7.346;2023-02-01T03:35:53;5.00;99.90
12588;DHT22;6359;51.450;7.346;2023-02-01T03:38:24;4.90;99.90
12588;DHT22;6359;51.450;7.346;2023-02-01T03:40:57;5.00;99.90
12588;DHT22;6359;51.450;7.346;2023-02-01T03:43:30;5.10;99.90
12588;DHT22;6359;51.450;7.346;2023-02-01T03:46:03;5.10;99.90
12588;DHT22;6359;51.450;7.346;2023-02-01T03:48:33;5.10;99.90
12588;DHT22;6359;51.450;7.346;2023-02-01T03:51:04;5.10;99.90
12588;DHT22;6359;51.450;7.346;2023-02-01T03:53:34;5.10;99.90
12588;DHT22;6359;51.450;7.346;2023-02-01T03:56:03;5.10;99.90
12588;DHT22;6359;51.450;7.346;2023-02-01T03:58:30;5.10;99.90
12588;DHT22;6359;51.450;7.346;2023-02-01T04:00:59;5.10;99.90
12588;DHT22;6359;51.450;7.346;2023-02-01T04:03:27;5.10;99.90
12588;DHT22;6359;51.450;7.346;2023-02-01T04:05:55;5.10;99.90
12588;DHT22;6359;51.450;7.346;2023-02-01T04:08:22;5.10;99.90
12588;DHT22;6359;51.450;7.346;2023-02-01T04:10:51;5.10;99.90
12588;DHT22;6359;51.450;7.346;2023-02-01T04:13:18;5.10;99.90
12588;DHT22;6359;51.450;7.346;2023-02-01T04:15:46;5.20;99.90
12588;DHT22;6359;51.450;7.346;2023-02-01T04:18:15;5.20;99.90
12588;DHT22;6359;51.450;7.346;2023-02-01T04:20:43;5.20;99.90
12588;DHT22;6359;51.450;7.346;2023-02-01T04:23:10;5.30;99.90
12588;DHT22;6359;51.450;7.346;2023-02-01T04:25:37;5.30;99.90
12588;DHT22;6359;51.450;7.346;2023-02-01T04:28:06;5.30;99.90
12588;DHT22;6359;51.450;7.346;2023-02-01T04:30:33;5.30;99.90
12588;DHT22;6359;51.450;7.346;2023-02-01T04:33:00;5.30;99.90
12588;DHT22;6359;51.450;7.346;2023-02-01T04:35:29;5.30;99.90
12588;DHT22;6359;51.450;7.346;2023-02-01T04:37:56;5.30;99.90
12588;DHT22;6359;51.450;7.346;2023-02-01T04:40:23;5.30;99.90
12588;DHT22;6359;51.450;7.346;2023-02-01T04:42:50;5.40;99.90
12588;DHT22;6359;51.450;7.346;2023-02-01T04:45:18;5.30;99.90
12588;DHT22;6359;51.450;7.346;2023-02-01T04:47:45;5.40;99.90
12588;DHT22;6359;51.450;7.346;2023-02-01T04:50:14;5.30;99.90
12588;DHT22;6359;51.450;7.346;2023-02-01T04:52:41;5.30;99.90
12588;DHT22;6359;51.450;7.346;2023-02-01T04:55:10;5.30;99.90
12588;DHT22;6359;51.450;7.346;2023-02-01T04:57:38;5.30;99.90
12588;DHT22;6359;51.450;7.346;2023-02-01T05:00:07;5.30;99.90
12588;DHT22;6359;51.450;7.346;2023-02-01T05:02:36;5.30;99.90
12588;DHT22;6359;51.450;7.346;2023-02-01T05:05:04;5.30;99.90
12588;DHT22;6359;51.450;7.346;2023-02-01T05:07:31;5.30;99.90
12588;DHT22;6359;51.450;7.346;2023-02-01T05:09:58;5.30;99.90
12588;DHT22;6359;51.450;7.346;2023-02-01T05:12:25;5.50;99.90
12588;DHT22;6359;51.450;7.346;2023-02-01T05:15:09;5.30;99.90
12588;DHT22;6359;51.450;7.346;2023-02-01T05:17:38;5.30;99.90
12588;DHT22;6359;51.450;7.346;2023-02-01T05:20:07;5.30;99.90
12588;DHT22;6359;51.450;7.346;2023-02-01T05:22:34;5.30;99.90
12588;DHT22;6359;51.450;7.346;2023-02-01T05:25:01;5.30;99.90
12588;DHT22;6359;51.450;7.346;2023-02-01T05:27:29;5.30;99.90
12588;DHT22;6359;51.450;7.346;2023-02-01T05:29:56;5.30;99.90
12588;DHT22;6359;51.450;7.346;2023-02-01T05:32:23;5.50;99.90
12588;DHT22;6359;51.450;7.346;2023-02-01T05:34:52;5.30;99.90
12588;DHT22;6359;51.450;7.346;2023-02-01T05:37:19;5.20;99.90
12588;DHT22;6359;51.450;7.346;2023-02-01T05:39:46;5.30;99.90
12588;DHT22;6359;51.450;7.346;2023-02-01T05:42:13;5.30;99.90
12588;DHT22;6359;51.450;7.346;2023-02-01T05:44:40;5.30;99.90
12588;DHT22;6359;51.450;7.346;2023-02-01T05:47:07;5.50;99.90
12588;DHT22;6359;51.450;7.346;2023-02-01T05:49:34;5.30;99.90
12588;DHT22;6359;51.450;7.346;2023-02-01T05:52:03;5.30;99.90
12588;DHT22;6359;51.450;7.346;2023-02-01T05:54:30;5.30;99.90
12588;DHT22;6359;51.450;7.346;2023-02-01T05:56:57;5.30;99.90
12588;DHT22;6359;51.450;7.346;2023-02-01T05:59:24;5.20;99.90
12588;DHT22;6359;51.450;7.346;2023-02-01T06:01:51;5.20;99.90
12588;DHT22;6359;51.450;7.346;2023-02-01T06:04:18;5.10;99.90
12588;DHT22;6359;51.450;7.346;2023-02-01T06:06:45;5.10;99.90
12588;DHT22;6359;51.450;7.346;2023-02-01T06:09:13;5.00;99.90
12588;DHT22;6359;51.450;7.346;2023-02-01T06:11:40;4.90;99.90
12588;DHT22;6359;51.450;7.346;2023-02-01T06:14:08;4.90;99.90
12588;DHT22;6359;51.450;7.346;2023-02-01T06:16:35;5.00;99.90
12588;DHT22;6359;51.450;7.346;2023-02-01T06:19:02;4.90;99.90
12588;DHT22;6359;51.450;7.346;2023-02-01T06:21:29;5.00;99.90
12588;DHT22;6359;51.450;7.346;2023-02-01T06:23:55;5.10;99.90
12588;DHT22;6359;51.450;7.346;2023-02-01T06:26:25;5.20;99.90
12588;DHT22;6359;51.450;7.346;2023-02-01T06:28:53;5.20;99.90
12588;DHT22;6359;51.450;7.346;2023-02-01T06:31:21;5.20;99.90
12588;DHT22;6359;51.450;7.346;2023-02-01T06:33:48;5.20;99.90
12588;DHT22;6359;51.450;7.346;2023-02-01T06:36:15;5.20;99.90
12588;DHT22;6359;51.450;7.346;2023-02-01T06:38:44;5.20;99.90
12588;DHT22;6359;51.450;7.346;2023-02-01T06:41:11;5.20;99.90
12588;DHT22;6359;51.450;7.346;2023-02-01T06:43:39;5.20;99.90
12588;DHT22;6359;51.450;7.346;2023-02-01T06:46:08;5.20;99.90
12588;DHT22;6359;51.450;7.346;2023-02-01T06:48:36;5.20;99.90
12588;DHT22;6359;51.450;7.346;2023-02-01T06:51:03;5.30;99.90
12588;DHT22;6359;51.450;7.346;2023-02-01T06:53:31;5.30;99.90
12588;DHT22;6359;51.450;7.346;2023-02-01T06:55:59;5.20;99.90
12588;DHT22;6359;51.450;7.346;2023-02-01T06:58:28;5.20;99.90
12588;DHT22;6359;51.450;7.346;2023-02-01T07:00:57;5.30;99.90
12588;DHT22;6359;51.450;7.346;2023-02-01T07:03:24;5.30;99.90
12588;DHT22;6359;51.450;7.346;2023-02-01T07:05:55;5.30;99.90
12588;DHT22;6359;51.450;7.346;2023-02-01T07:08:23;5.20;99.90
12588;DHT22;6359;51.450;7.346;2023-02-01T07:10:50;5.30;99.90
12588;DHT22;6359;51.450;7.346;2023-02-01T07:13:17;5.30;99.90
12588;DHT22;6359;51.450;7.346;2023-02-01T07:15:44;5.30;99.90
12588;DHT22;6359;51.450;7.346;2023-02-01T07:18:14;5.20;99.90
12588;DHT22;6359;51.450;7.346;2023-02-01T07:20:41;5.30;99.90
12588;DHT22;6359;51.450;7.346;2023-02-01T07:23:09;5.30;99.90
12588;DHT22;6359;51.450;7.346;2023-02-01T07:25:37;5.30;99.90
12588;DHT22;6359;51.450;7.346;2023-02-01T07:28:03;5.30;99.90
12588;DHT22;6359;51.450;7.346;2023-02-01T07:30:30;5.30;99.90
12588;DHT22;6359;51.450;7.346;2023-02-01T07:32:57;5.30;99.90
12588;DHT22;6359;51.450;7.346;2023-02-01T07:35:28;5.30;99.90
12588;DHT22;6359;51.450;7.346;2023-02-01T07:37:57;5.30;99.90
12588;DHT22;6359;51.450;7.346;2023-02-01T07:40:25;6.00;99.90
12588;DHT22;6359;51.450;7.346;2023-02-01T07:42:54;5.90;99.90
12588;DHT22;6359;51.450;7.346;2023-02-01T07:45:21;5.40;99.90
12588;DHT22;6359;51.450;7.346;2023-02-01T07:47:48;6.00;99.90
12588;DHT22;6359;51.450;7.346;2023-02-01T07:50:16;5.90;99.90
12588;DHT22;6359;51.450;7.346;2023-02-01T07:52:44;5.40;99.90
12588;DHT22;6359;51.450;7.346;2023-02-01T07:55:11;5.50;99.90
12588;DHT22;6359;51.450;7.346;2023-02-01T07:57:38;5.50;99.90
12588;DHT22;6359;51.450;7.346;2023-02-01T08:00:06;5.50;99.90
12588;DHT22;6359;51.450;7.346;2023-02-01T08:02:50;5.40;99.90
12588;DHT22;6359;51.450;7.346;2023-02-01T08:05:17;5.50;99.90
12588;DHT22;6359;51.450;7.346;2023-02-01T08:07:48;5.50;99.90
12588;DHT22;6359;51.450;7.346;2023-02-01T08:10:15;5.50;99.90
12588;DHT22;6359;51.450;7.346;2023-02-01T08:12:43;5.50;99.90
12588;DHT22;6359;51.450;7.346;2023-02-01T08:15:13;6.50;99.90
12588;DHT22;6359;51.450;7.346;2023-02-01T08:17:45;5.50;99.90
12588;DHT22;6359;51.450;7.346;2023-02-01T08:20:12;5.50;99.90
12588;DHT22;6359;51.450;7.346;2023-02-01T08:22:39;5.50;99.90
12588;DHT22;6359;51.450;7.346;2023-02-01T08:25:09;5.60;99.90
12588;DHT22;6359;51.450;7.346;2023-02-01T08:27:36;5.60;99.90
12588;DHT22;6359;51.450;7.346;2023-02-01T08:30:04;5.60;99.90
12588;DHT22;6359;51.450;7.346;2023-02-01T08:32:33;5.60;99.90
12588;DHT22;6359;51.450;7.346;2023-02-01T08:35:00;6.80;99.90
12588;DHT22;6359;51.450;7.346;2023-02-01T08:37:27;5.70;99.90
12588;DHT22;6359;51.450;7.346;2023-02-01T08:39:54;4.30;99.90
12588;DHT22;6359;51.450;7.346;2023-02-01T08:42:22;6.50;99.90
12588;DHT22;6359;51.450;7.346;2023-02-01T08:45:08;5.70;99.90
12588;DHT22;6359;51.450;7.346;2023-02-01T08:47:35;5.70;99.90
12588;DHT22;6359;51.450;7.346;2023-02-01T08:50:03;6.30;99.90
12588;DHT22;6359;51.450;7.346;2023-02-01T08:52:30;5.80;99.90
12588;DHT22;6359;51.450;7.346;2023-02-01T08:54:57;6.40;99.90
12588;DHT22;6359;51.450;7.346;2023-02-01T08:57:25;5.90;99.90
12588;DHT22;6359;51.450;7.346;2023-02-01T08:59:53;5.80;99.90
12588;DHT22;6359;51.450;7.346;2023-02-01T09:02:19;6.90;99.90
12588;DHT22;6359;51.450;7.346;2023-02-01T09:04:46;5.90;99.90
12588;DHT22;6359;51.450;7.346;2023-02-01T09:07:13;6.10;99.90
12588;DHT22;6359;51.450;7.346;2023-02-01T09:09:42;6.20;99.90
12588;DHT22;6359;51.450;7.346;2023-02-01T09:12:09;6.20;99.90
12588;DHT22;6359;51.450;7.346;2023-02-01T09:14:37;6.10;99.90
12588;DHT22;6359;51.450;7.346;2023-02-01T09:17:04;6.10;99.90
12588;DHT22;6359;51.450;7.346;2023-02-01T09:19:32;6.20;99.90
12588;DHT22;6359;51.450;7.346;2023-02-01T09:21:59;6.40;99.90
12588;DHT22;6359;51.450;7.346;2023-02-01T09:24:26;6.50;99.90
12588;DHT22;6359;51.450;7.346;2023-02-01T09:26:54;6.20;99.90
12588;DHT22;6359;51.450;7.346;2023-02-01T09:29:21;7.00;99.90
12588;DHT22;6359;51.450;7.346;2023-02-01T09:31:49;6.30;99.90
12588;DHT22;6359;51.450;7.346;2023-02-01T09:34:16;6.30;99.90
12588;DHT22;6359;51.450;7.346;2023-02-01T09:36:43;6.30;99.90
12588;DHT22;6359;51.450;7.346;2023-02-01T09:39:10;6.30;99.90
12588;DHT22;6359;51.450;7.346;2023-02-01T09:41:45;6.30;99.90
12588;DHT22;6359;51.450;7.346;2023-02-01T09:44:24;6.20;99.90
12588;DHT22;6359;51.450;7.346;2023-02-01T09:46:59;6.20;99.90
12588;DHT22;6359;51.450;7.346;2023-02-01T09:49:29;6.30;99.90
12588;DHT22;6359;51.450;7.346;2023-02-01T09:51:56;6.30;99.90
12588;DHT22;6359;51.450;7.346;2023-02-01T09:54:26;6.40;99.90
12588;DHT22;6359;51.450;7.346;2023-02-01T09:56:59;6.30;99.90
12588;DHT22;6359;51.450;7.346;2023-02-01T09:59:38;6.70;99.90
12588;DHT22;6359;51.450;7.346;2023-02-01T10:02:12;6.40;99.90
12588;DHT22;6359;51.450;7.346;2023-02-01T10:04:40;6.40;99.90
12588;DHT22;6359;51.450;7.346;2023-02-01T10:07:19;6.50;99.90
12588;DHT22;6359;51.450;7.346;2023-02-01T10:09:54;6.40;99.90
12588;DHT22;6359;51.450;7.346;2023-02-01T10:12:44;6.40;99.90
12588;DHT22;6359;51.450;7.346;2023-02-01T10:15:22;6.40;99.90
12588;DHT22;6359;51.450;7.346;2023-02-01T10:18:15;6.40;99.90
12588;DHT22;6359;51.450;7.346;2023-02-01T10:20:56;6.40;99.90
12588;DHT22;6359;51.450;7.346;2023-02-01T10:23:43;6.50;99.90
12588;DHT22;6359;51.450;7.346;2023-02-01T10:26:17;6.50;99.90
12588;DHT22;6359;51.450;7.346;2023-02-01T10:28:46;6.60;99.90
12588;DHT22;6359;51.450;7.346;2023-02-01T10:31:15;6.60;99.90
12588;DHT22;6359;51.450;7.346;2023-02-01T10:33:47;6.70;99.90
12588;DHT22;6359;51.450;7.346;2023-02-01T10:36:21;6.70;99.90
12588;DHT22;6359;51.450;7.346;2023-02-01T10:38:48;7.20;99.90
12588;DHT22;6359;51.450;7.346;2023-02-01T10:41:18;6.70;99.90
12588;DHT22;6359;51.450;7.346;2023-02-01T10:43:48;6.60;99.90
12588;DHT22;6359;51.450;7.346;2023-02-01T10:46:16;6.50;99.90
12588;DHT22;6359;51.450;7.346;2023-02-01T10:48:45;6.50;99.90
12588;DHT22;6359;51.450;7.346;2023-02-01T10:51:16;6.40;99.90
12588;DHT22;6359;51.450;7.346;2023-02-01T10:53:49;6.40;99.90
12588;DHT22;6359;51.450;7.346;2023-02-01T10:56:22;6.40;99.90
12588;DHT22;6359;51.450;7.346;2023-02-01T10:58:49;6.40;99.90
12588;DHT22;6359;51.450;7.346;2023-02-01T11:01:19;6.40;99.90
12588;DHT22;6359;51.450;7.346;2023-02-01T11:03:53;6.30;99.90
12588;DHT22;6359;51.450;7.346;2023-02-01T11:06:27;6.30;99.90
12588;DHT22;6359;51.450;7.346;2023-02-01T11:08:57;6.40;99.90
12588;DHT22;6359;51.450;7.346;2023-02-01T11:11:24;6.40;99.90
12588;DHT22;6359;51.450;7.346;2023-02-01T11:13:54;6.50;99.90
12588;DHT22;6359;51.450;7.346;2023-02-01T11:16:29;6.60;99.90
12588;DHT22;6359;51.450;7.346;2023-02-01T11:18:58;6.50;99.90
12588;DHT22;6359;51.450;7.346;2023-02-01T11:21:26;6.30;99.90
12588;DHT22;6359;51.450;7.346;2023-02-01T11:23:53;6.30;99.90
12588;DHT22;6359;51.450;7.346;2023-02-01T11:26:22;6.30;99.90
12588;DHT22;6359;51.450;7.346;2023-02-01T11:28:57;7.10;99.90
12588;DHT22;6359;51.450;7.346;2023-02-01T11:31:26;6.50;99.90
12588;DHT22;6359;51.450;7.346;2023-02-01T11:33:59;6.50;99.90
12588;DHT22;6359;51.450;7.346;2023-02-01T11:36:27;6.70;99.90
12588;DHT22;6359;51.450;7.346;2023-02-01T11:39:10;6.70;99.90
12588;DHT22;6359;51.450;7.346;2023-02-01T11:42:01;6.70;99.90
12588;DHT22;6359;51.450;7.346;2023-02-01T11:44:32;7.30;99.90
12588;DHT22;6359;51.450;7.346;2023-02-01T11:47:21;7.40;99.90
12588;DHT22;6359;51.450;7.346;2023-02-01T11:49:52;6.70;99.90
12588;DHT22;6359;51.450;7.346;2023-02-01T11:52:38;6.70;99.90
12588;DHT22;6359;51.450;7.346;2023-02-01T11:55:17;6.70;99.90
12588;DHT22;6359;51.450;7.346;2023-02-01T11:58:00;7.60;99.90
12588;DHT22;6359;51.450;7.346;2023-02-01T12:00:50;6.60;99.90
12588;DHT22;6359;51.450;7.346;2023-02-01T12:06:31;6.60;99.90
12588;DHT22;6359;51.450;7.346;2023-02-01T12:09:23;6.50;99.90
12588;DHT22;6359;51.450;7.346;2023-02-01T12:11:59;6.40;99.90
12588;DHT22;6359;51.450;7.346;2023-02-01T12:14:43;6.30;99.90
12588;DHT22;6359;51.450;7.346;2023-02-01T12:20:24;6.10;99.90
12588;DHT22;6359;51.450;7.346;2023-02-01T12:23:09;6.00;99.90
12588;DHT22;6359;51.450;7.346;2023-02-01T12:25:52;5.90;99.90
12588;DHT22;6359;51.450;7.346;2023-02-01T12:28:42;5.90;99.90
12588;DHT22;6359;51.450;7.346;2023-02-01T12:31:19;5.90;99.90
12588;DHT22;6359;51.450;7.346;2023-02-01T12:34:13;6.00;99.90
12588;DHT22;6359;51.450;7.346;2023-02-01T12:36:48;6.00;99.90
12588;DHT22;6359;51.450;7.346;2023-02-01T12:39:22;6.00;99.90
12588;DHT22;6359;51.450;7.346;2023-02-01T12:41:57;6.10;99.90
12588;DHT22;6359;51.450;7.346;2023-02-01T12:44:35;6.00;99.90
12588;DHT22;6359;51.450;7.346;2023-02-01T12:47:07;6.10;99.90
12588;DHT22;6359;51.450;7.346;2023-02-01T12:49:48;7.10;99.90
12588;DHT22;6359;51.450;7.346;2023-02-01T12:52:21;6.20;99.90
12588;DHT22;6359;51.450;7.346;2023-02-01T12:54:57;6.70;99.90
12588;DHT22;6359;51.450;7.346;2023-02-01T12:57:27;6.20;99.90
12588;DHT22;6359;51.450;7.346;2023-02-01T13:00:00;7.00;99.90
12588;DHT22;6359;51.450;7.346;2023-02-01T13:02:33;6.30;99.90
12588;DHT22;6359;51.450;7.346;2023-02-01T13:05:12;6.30;99.90
12588;DHT22;6359;51.450;7.346;2023-02-01T13:07:45;6.80;99.90
12588;DHT22;6359;51.450;7.346;2023-02-01T13:10:18;6.30;99.90
12588;DHT22;6359;51.450;7.346;2023-02-01T13:12:50;6.40;99.90
12588;DHT22;6359;51.450;7.346;2023-02-01T13:15:23;6.30;99.90
12588;DHT22;6359;51.450;7.346;2023-02-01T13:17:51;6.30;99.90
12588;DHT22;6359;51.450;7.346;2023-02-01T13:20:23;6.30;99.90
12588;DHT22;6359;51.450;7.346;2023-02-01T13:22:57;7.30;99.90
12588;DHT22;6359;51.450;7.346;2023-02-01T13:25:31;6.40;99.90
12588;DHT22;6359;51.450;7.346;2023-02-01T13:28:04;6.30;99.90
12588;DHT22;6359;51.450;7.346;2023-02-01T13:30:43;6.30;99.90
12588;DHT22;6359;51.450;7.346;2023-02-01T13:33:31;6.30;99.90
12588;DHT22;6359;51.450;7.346;2023-02-01T13:42:11;6.30;99.90
12588;DHT22;6359;51.450;7.346;2023-02-01T13:44:44;6.40;99.90
12588;DHT22;6359;51.450;7.346;2023-02-01T13:47:20;6.40;99.90
12588;DHT22;6359;51.450;7.346;2023-02-01T13:49:49;6.60;99.90
12588;DHT22;6359;51.450;7.346;2023-02-01T13:52:39;7.30;99.90
12588;DHT22;6359;51.450;7.346;2023-02-01T13:55:31;7.70;99.90
12588;DHT22;6359;51.450;7.346;2023-02-01T13:58:11;6.60;99.90
12588;DHT22;6359;51.450;7.346;2023-02-01T14:00:41;6.60;99.90
12588;DHT22;6359;51.450;7.346;2023-02-01T14:03:20;6.60;99.90
12588;DHT22;6359;51.450;7.346;2023-02-01T14:06:01;6.60;99.90
12588;DHT22;6359;51.450;7.346;2023-02-01T14:08:46;6.70;99.90
12588;DHT22;6359;51.450;7.346;2023-02-01T14:11:38;7.40;99.90
12588;DHT22;6359;51.450;7.346;2023-02-01T14:17:37;6.80;99.90
12588;DHT22;6359;51.450;7.346;2023-02-01T14:23:27;6.70;99.90
12588;DHT22;6359;51.450;7.346;2023-02-01T14:26:20;6.70;99.90
12588;DHT22;6359;51.450;7.346;2023-02-01T14:28:58;6.70;99.90
12588;DHT22;6359;51.450;7.346;2023-02-01T14:31:46;6.80;99.90
12588;DHT22;6359;51.450;7.346;2023-02-01T14:34:35;6.70;99.90
12588;DHT22;6359;51.450;7.346;2023-02-01T14:37:10;6.90;99.90
12588;DHT22;6359;51.450;7.346;2023-02-01T14:39:50;6.90;99.90
12588;DHT22;6359;51.450;7.346;2023-02-01T14:42:25;6.90;99.90
12588;DHT22;6359;51.450;7.346;2023-02-01T14:44:53;7.50;99.90
12588;DHT22;6359;51.450;7.346;2023-02-01T14:47:36;7.00;99.90
12588;DHT22;6359;51.450;7.346;2023-02-01T14:50:27;7.00;99.90
12588;DHT22;6359;51.450;7.346;2023-02-01T14:53:16;7.00;99.90
12588;DHT22;6359;51.450;7.346;2023-02-01T14:55:49;7.00;99.90
12588;DHT22;6359;51.450;7.346;2023-02-01T14:58:25;7.10;99.90
12588;DHT22;6359;51.450;7.346;2023-02-01T15:00:57;7.00;99.90
12588;DHT22;6359;51.450;7.346;2023-02-01T15:03:50;7.00;99.90
12588;DHT22;6359;51.450;7.346;2023-02-01T15:06:31;6.90;99.90
12588;DHT22;6359;51.450;7.346;2023-02-01T15:09:02;6.90;99.90
12588;DHT22;6359;51.450;7.346;2023-02-01T15:11:29;7.40;99.90
12588;DHT22;6359;51.450;7.346;2023-02-01T15:13:56;7.00;99.90
12588;DHT22;6359;51.450;7.346;2023-02-01T15:16:26;7.00;99.90
12588;DHT22;6359;51.450;7.346;2023-02-01T15:19:10;7.00;99.90
12588;DHT22;6359;51.450;7.346;2023-02-01T15:21:48;7.00;99.90
12588;DHT22;6359;51.450;7.346;2023-02-01T15:24:22;7.00;99.90
12588;DHT22;6359;51.450;7.346;2023-02-01T15:26:50;7.00;99.90
12588;DHT22;6359;51.450;7.346;2023-02-01T15:29:18;7.00;99.90
12588;DHT22;6359;51.450;7.346;2023-02-01T15:31:47;7.00;99.90
12588;DHT22;6359;51.450;7.346;2023-02-01T15:34:14;8.00;99.90
12588;DHT22;6359;51.450;7.346;2023-02-01T15:36:42;7.20;99.90
12588;DHT22;6359;51.450;7.346;2023-02-01T15:39:19;7.10;99.90
12588;DHT22;6359;51.450;7.346;2023-02-01T15:41:54;7.10;99.90
12588;DHT22;6359;51.450;7.346;2023-02-01T15:44:31;7.10;99.90
12588;DHT22;6359;51.450;7.346;2023-02-01T15:46:59;8.10;99.90
12588;DHT22;6359;51.450;7.346;2023-02-01T15:49:29;7.10;99.90
12588;DHT22;6359;51.450;7.346;2023-02-01T15:51:58;7.90;99.90
12588;DHT22;6359;51.450;7.346;2023-02-01T15:54:30;7.00;99.90
12588;DHT22;6359;51.450;7.346;2023-02-01T15:56:59;7.10;99.90
12588;DHT22;6359;51.450;7.346;2023-02-01T15:59:31;7.20;99.90
12588;DHT22;6359;51.450;7.346;2023-02-01T16:01:59;7.10;99.90
12588;DHT22;6359;51.450;7.346;2023-02-01T16:04:27;7.10;99.90
12588;DHT22;6359;51.450;7.346;2023-02-01T16:06:57;7.10;99.90
12588;DHT22;6359;51.450;7.346;2023-02-01T16:09:36;7.90;99.90
12588;DHT22;6359;51.450;7.346;2023-02-01T16:12:04;8.20;99.90
12588;DHT22;6359;51.450;7.346;2023-02-01T16:14:46;7.20;99.90
12588;DHT22;6359;51.450;7.346;2023-02-01T16:17:13;8.10;99.90
12588;DHT22;6359;51.450;7.346;2023-02-01T16:19:40;8.20;99.90
12588;DHT22;6359;51.450;7.346;2023-02-01T16:22:07;7.20;99.90
12588;DHT22;6359;51.450;7.346;2023-02-01T16:24:35;7.20;99.90
12588;DHT22;6359;51.450;7.346;2023-02-01T16:27:03;7.20;99.90
12588;DHT22;6359;51.450;7.346;2023-02-01T16:29:30;7.30;99.90
12588;DHT22;6359;51.450;7.346;2023-02-01T16:31:57;6.60;99.90
12588;DHT22;6359;51.450;7.346;2023-02-01T16:34:24;7.30;99.90
12588;DHT22;6359;51.450;7.346;2023-02-01T16:36:52;7.30;99.90
12588;DHT22;6359;51.450;7.346;2023-02-01T16:39:22;7.20;99.90
12588;DHT22;6359;51.450;7.346;2023-02-01T16:41:51;8.00;99.90
12588;DHT22;6359;51.450;7.346;2023-02-01T16:44:18;7.10;99.90
12588;DHT22;6359;51.450;7.346;2023-02-01T16:46:46;7.10;99.90
12588;DHT22;6359;51.450;7.346;2023-02-01T16:49:18;7.00;99.90
12588;DHT22;6359;51.450;7.346;2023-02-01T16:51:47;6.80;99.90
12588;DHT22;6359;51.450;7.346;2023-02-01T16:54:15;6.70;99.90